createdAt,value
2019-02-19T00:00:23.456Z,73.65
2019-02-19T00:02:52.405Z,71.72
2019-02-19T00:05:20.244Z,70.87
2019-02-19T00:07:48.197Z,88.40
2019-02-19T00:10:16.247Z,96.60
2019-02-19T00:12:44.734Z,80.72
2019-02-19T00:15:12.681Z,78.20
2019-02-19T00:17:40.481Z,82.05
2019-02-19T00:20:08.449Z,78.50
2019-02-19T00:22:36.294Z,72.97
2019-02-19T00:25:04.577Z,70.85
2019-02-19T00:27:32.467Z,76.62
2019-02-19T00:30:00.372Z,72.45
2019-02-19T00:32:28.320Z,80.65
2019-02-19T00:34:56.837Z,72.40
2019-02-19T00:37:24.814Z,66.67
2019-02-19T00:39:52.631Z,63.38
2019-02-19T00:42:21.255Z,59.88
2019-02-19T00:44:49.516Z,61.23
2019-02-19T00:47:17.706Z,62.23
2019-02-19T00:49:47.574Z,63.87
2019-02-19T00:52:15.444Z,61.63
2019-02-19T00:54:43.364Z,62.95
2019-02-19T00:57:11.391Z,60.38
2019-02-19T00:59:39.466Z,63.68
2019-02-19T01:02:08.195Z,62.75
2019-02-19T01:04:36.096Z,63.73
2019-02-19T01:07:04.105Z,60.48
2019-02-19T01:09:31.958Z,61.25
2019-02-19T01:11:59.907Z,56.63
2019-02-19T01:14:28.097Z,60.90
2019-02-19T01:16:56.010Z,59.98
2019-02-19T01:19:23.902Z,57.98
2019-02-19T01:21:51.825Z,56.50
2019-02-19T01:24:19.610Z,58.92
2019-02-19T01:26:47.664Z,54.77
2019-02-19T01:29:15.446Z,57.15
2019-02-19T01:31:43.270Z,55.58
2019-02-19T01:34:11.050Z,56.33
2019-02-19T01:36:39.818Z,57.60
2019-02-19T01:39:07.743Z,57.33
2019-02-19T01:41:35.624Z,57.50
2019-02-19T01:44:03.658Z,57.78
2019-02-19T01:46:31.575Z,63.05
2019-02-19T01:48:59.424Z,60.85
2019-02-19T01:51:27.450Z,67.37
2019-02-19T01:53:55.493Z,69.55
2019-02-19T01:56:24.157Z,65.85
2019-02-19T01:58:52.082Z,64.87
2019-02-19T02:01:20.073Z,61.18
2019-02-19T02:03:47.979Z,61.28
2019-02-19T02:06:15.826Z,62.45
2019-02-19T02:08:43.706Z,62.85
2019-02-19T02:11:12.175Z,60.67
2019-02-19T02:13:39.984Z,57.55
2019-02-19T02:16:07.768Z,58.15
2019-02-19T02:18:35.699Z,56.83
2019-02-19T02:21:03.653Z,56.23
2019-02-19T02:23:31.469Z,59.18
2019-02-19T02:25:59.315Z,58.78
2019-02-19T02:28:27.239Z,59.27
2019-02-19T02:30:55.117Z,55.23
2019-02-19T02:33:23.651Z,55.67
2019-02-19T02:35:51.434Z,55.00
2019-02-19T02:38:19.340Z,56.58
2019-02-19T02:40:47.170Z,53.63
2019-02-19T02:43:15.034Z,56.73
2019-02-19T02:45:52.445Z,55.75
2019-02-19T02:48:12.575Z,55.08
2019-02-19T02:50:40.449Z,55.70
2019-02-19T02:53:08.344Z,53.78
2019-02-19T02:55:36.702Z,57.03
2019-02-19T02:58:04.703Z,53.42
2019-02-19T03:00:32.608Z,53.55
2019-02-19T03:03:00.997Z,53.48
2019-02-19T03:05:28.806Z,52.93
2019-02-19T03:08:00.181Z,54.03
2019-02-19T03:10:28.021Z,54.73
2019-02-19T03:12:55.898Z,55.08
2019-02-19T03:15:23.818Z,54.00
2019-02-19T03:17:51.784Z,51.20
2019-02-19T03:20:19.589Z,53.48
2019-02-19T03:22:47.477Z,55.38
2019-02-19T03:25:16.224Z,54.93
2019-02-19T03:27:54.976Z,53.98
2019-02-19T03:30:22.923Z,56.50
2019-02-19T03:32:50.686Z,58.05
2019-02-19T03:35:18.671Z,56.45
2019-02-19T03:37:46.552Z,58.40
2019-02-19T03:40:14.647Z,54.38
2019-02-19T03:42:42.496Z,56.30
2019-02-19T03:45:10.863Z,55.45
2019-02-19T03:47:38.840Z,58.05
2019-02-19T03:50:06.859Z,55.08
2019-02-19T03:52:35.296Z,55.10
2019-02-19T03:55:03.363Z,53.33
2019-02-19T03:57:31.323Z,51.53
2019-02-19T04:00:00.325Z,50.75
2019-02-19T04:02:28.321Z,54.75
2019-02-19T04:04:56.124Z,56.77
2019-02-19T04:07:23.917Z,57.65
2019-02-19T04:09:51.886Z,59.45
2019-02-19T04:12:19.741Z,57.03
2019-02-19T04:14:47.688Z,54.05
2019-02-19T04:17:15.544Z,56.30
2019-02-19T04:19:43.580Z,59.25
2019-02-19T04:22:11.437Z,61.10
2019-02-19T04:24:39.355Z,60.38
2019-02-19T04:27:07.916Z,56.63
2019-02-19T04:29:36.667Z,55.83
2019-02-19T04:32:04.536Z,58.33
2019-02-19T04:34:32.295Z,56.42
2019-02-19T04:37:00.206Z,64.70
2019-02-19T04:39:27.953Z,67.10
2019-02-19T04:41:55.975Z,68.12
2019-02-19T04:44:23.721Z,68.92
2019-02-19T04:46:51.512Z,66.87
2019-02-19T04:49:19.395Z,69.12
2019-02-19T04:51:47.243Z,67.05
2019-02-19T04:54:15.003Z,59.00
2019-02-19T04:56:43.439Z,54.90
2019-02-19T04:59:11.283Z,55.75
2019-02-19T05:01:39.127Z,55.67
2019-02-19T05:04:06.935Z,53.75
2019-02-19T05:06:34.783Z,53.58
2019-02-19T05:09:04.692Z,54.83
2019-02-19T05:11:33.405Z,64.67
2019-02-19T05:14:01.265Z,62.95
2019-02-19T05:16:29.819Z,58.30
2019-02-19T05:18:57.687Z,57.38
2019-02-19T05:21:25.538Z,55.65
2019-02-19T05:23:53.401Z,54.95
2019-02-19T05:26:21.716Z,56.13
2019-02-19T05:28:49.557Z,54.42
2019-02-19T05:31:17.594Z,68.97
2019-02-19T05:33:45.579Z,58.08
2019-02-19T05:36:13.819Z,55.55
2019-02-19T05:38:41.701Z,50.55
2019-02-19T05:41:09.714Z,51.58
2019-02-19T05:43:37.497Z,48.65
2019-02-19T05:46:05.436Z,48.45
2019-02-19T05:48:33.304Z,51.35
2019-02-19T05:51:01.262Z,51.65
2019-02-19T05:53:29.053Z,51.68
2019-02-19T05:55:56.938Z,53.45
2019-02-19T05:58:24.771Z,51.92
2019-02-19T06:00:52.537Z,53.68
2019-02-19T06:03:31.097Z,52.10
2019-02-19T06:05:58.931Z,55.28
2019-02-19T06:08:26.770Z,55.30
2019-02-19T06:10:54.684Z,55.78
2019-02-19T06:13:24.023Z,58.35
2019-02-19T06:15:52.998Z,58.17
2019-02-19T06:18:20.836Z,62.62
2019-02-19T06:20:48.709Z,61.60
2019-02-19T06:23:16.539Z,74.07
2019-02-19T06:25:44.411Z,64.60
2019-02-19T06:28:12.230Z,62.78
2019-02-19T06:30:40.001Z,63.15
2019-02-19T06:33:07.809Z,59.80
2019-02-19T06:35:35.870Z,54.83
2019-02-19T06:38:03.876Z,55.55
2019-02-19T06:40:35.376Z,54.00
2019-02-19T06:43:03.290Z,52.15
2019-02-19T06:45:31.144Z,52.78
2019-02-19T06:47:59.891Z,53.38
2019-02-19T06:50:27.641Z,51.10
2019-02-19T06:52:55.569Z,52.20
2019-02-19T06:55:24.813Z,49.95
2019-02-19T06:57:52.671Z,59.95
2019-02-19T07:00:20.854Z,61.68
2019-02-19T07:02:54.009Z,58.90
2019-02-19T07:05:35.228Z,60.50
2019-02-19T07:08:04.137Z,65.78
2019-02-19T07:10:31.897Z,62.90
2019-02-19T07:12:59.829Z,58.95
2019-02-19T07:15:27.820Z,59.03
2019-02-19T07:17:55.620Z,63.10
2019-02-19T07:20:23.415Z,68.45
2019-02-19T07:22:51.213Z,68.80
2019-02-19T07:25:19.135Z,74.58
2019-02-19T07:27:47.585Z,67.32
2019-02-19T07:30:15.552Z,78.02
2019-02-19T07:32:43.535Z,72.58
2019-02-19T07:35:11.572Z,78.62
2019-02-19T07:37:39.362Z,77.08
2019-02-19T07:40:07.281Z,82.02
2019-02-19T07:42:35.256Z,83.72
2019-02-19T07:45:03.416Z,77.75
2019-02-19T07:47:31.229Z,77.27
2019-02-19T07:49:59.181Z,73.80
2019-02-19T07:52:28.157Z,57.80
2019-02-19T07:54:56.813Z,53.13
2019-02-19T07:57:24.688Z,44.73
2019-02-19T07:59:52.656Z,49.35
2019-02-19T08:02:20.428Z,42.10
2019-02-19T08:04:48.239Z,41.18
2019-02-19T08:07:16.863Z,37.60
2019-02-19T08:09:44.797Z,659.22
2019-02-19T08:12:12.628Z,521.83
2019-02-19T08:14:40.503Z,437.18
2019-02-19T08:17:08.261Z,211.92
2019-02-19T08:19:36.073Z,40.20
2019-02-19T08:22:04.241Z,27.35
2019-02-19T08:24:32.053Z,24.55
2019-02-19T08:26:59.883Z,21.62
2019-02-19T08:29:28.527Z,20.08
2019-02-19T08:31:56.308Z,21.02
2019-02-19T08:34:24.176Z,21.30
2019-02-19T08:36:52.126Z,21.65
2019-02-19T08:39:19.956Z,21.12
2019-02-19T08:41:47.865Z,21.45
2019-02-19T08:44:16.334Z,21.55
2019-02-19T08:46:44.187Z,21.45
2019-02-19T08:49:12.152Z,22.27
2019-02-19T08:51:40.154Z,20.40
2019-02-19T08:54:08.203Z,19.32
2019-02-19T08:56:36.022Z,18.82
2019-02-19T08:59:03.907Z,19.77
2019-02-19T09:01:31.749Z,18.37
2019-02-19T09:03:59.617Z,18.25
2019-02-19T09:06:27.761Z,19.27
2019-02-19T09:08:55.631Z,16.55
2019-02-19T09:11:23.593Z,18.65
2019-02-19T09:13:51.357Z,31.35
2019-02-19T09:16:19.309Z,26.33
2019-02-19T09:18:47.104Z,39.03
2019-02-19T09:21:15.045Z,31.73
2019-02-19T09:23:42.922Z,24.90
2019-02-19T09:26:10.802Z,28.80
2019-02-19T09:28:38.606Z,30.27
2019-02-19T09:31:06.513Z,31.90
2019-02-19T09:33:34.387Z,20.30
2019-02-19T09:36:02.210Z,18.13
2019-02-19T09:38:30.370Z,19.20
2019-02-19T09:40:58.992Z,17.87
2019-02-19T09:43:35.154Z,17.33
2019-02-19T09:45:58.958Z,17.73
2019-02-19T09:48:26.553Z,27.37
2019-02-19T09:50:54.508Z,22.10
2019-02-19T09:53:22.270Z,18.87
2019-02-19T09:55:50.035Z,18.07
2019-02-19T09:58:17.891Z,17.93
2019-02-19T10:00:45.661Z,17.57
2019-02-19T10:03:13.785Z,17.50
2019-02-19T10:05:41.654Z,18.10
2019-02-19T10:27:50.158Z,14.97
2019-02-19T10:30:18.168Z,16.77
2019-02-19T10:32:46.209Z,16.63
2019-02-19T10:35:14.040Z,15.07
2019-02-19T10:37:41.955Z,14.10
2019-02-19T10:40:11.997Z,14.60
2019-02-19T10:42:39.900Z,15.20
2019-02-19T10:45:10.023Z,13.60
2019-02-19T10:47:38.052Z,13.83
2019-02-19T10:50:06.790Z,14.27
2019-02-19T10:52:34.581Z,13.77
2019-02-19T10:55:02.364Z,14.60
2019-02-19T10:57:30.333Z,12.80
2019-02-19T10:59:58.090Z,13.73
2019-02-19T11:02:26.101Z,13.67
2019-02-19T11:04:53.941Z,13.73
2019-02-19T11:07:21.811Z,13.93
2019-02-19T11:09:49.584Z,15.23
2019-02-19T11:12:17.456Z,15.33
2019-02-19T11:14:45.254Z,15.27
2019-02-19T11:17:12.997Z,15.57
2019-02-19T11:19:40.896Z,14.70
2019-02-19T11:22:08.873Z,14.97
2019-02-19T11:24:37.183Z,15.00
2019-02-19T11:27:04.936Z,15.20
2019-02-19T11:29:32.746Z,16.00
2019-02-19T11:32:00.920Z,13.97
2019-02-19T11:34:28.806Z,13.53
2019-02-19T11:36:56.525Z,13.73
2019-02-19T11:39:24.346Z,13.97
2019-02-19T11:41:52.214Z,14.50
2019-02-19T11:44:20.285Z,13.63
2019-02-19T11:46:48.009Z,15.23
2019-02-19T11:49:15.820Z,13.60
2019-02-19T11:51:43.583Z,14.33
2019-02-19T11:54:11.385Z,13.27
2019-02-19T11:56:39.232Z,12.80
2019-02-19T11:59:08.702Z,13.03
2019-02-19T12:01:36.718Z,12.70
2019-02-19T12:04:04.640Z,12.27
2019-02-19T12:06:32.514Z,11.90
2019-02-19T12:09:00.409Z,13.60
2019-02-19T12:11:28.165Z,12.23
2019-02-19T12:13:55.972Z,13.30
2019-02-19T12:16:23.732Z,13.00
2019-02-19T12:18:51.644Z,13.27
2019-02-19T12:21:19.406Z,13.17
2019-02-19T12:23:47.169Z,12.30
2019-02-19T12:26:15.071Z,13.57
2019-02-19T12:28:42.808Z,13.20
2019-02-19T12:31:10.758Z,13.93
2019-02-19T12:33:44.830Z,13.63
2019-02-19T12:36:12.639Z,14.30
2019-02-19T12:38:40.593Z,13.40
2019-02-19T12:41:08.506Z,13.50
2019-02-19T12:43:36.314Z,13.37
2019-02-19T12:46:04.923Z,12.03
2019-02-19T12:48:32.684Z,9.90
2019-02-19T12:51:00.556Z,8.83
2019-02-19T12:53:28.406Z,9.17
2019-02-19T12:55:56.310Z,9.23
2019-02-19T12:58:25.143Z,8.40
2019-02-19T13:00:53.028Z,8.90
2019-02-19T13:03:20.980Z,8.40
2019-02-19T13:05:48.763Z,9.03
2019-02-19T13:08:16.521Z,9.67
2019-02-19T13:10:44.400Z,9.67
2019-02-19T13:13:12.127Z,9.47
2019-02-19T13:15:40.045Z,9.17
2019-02-19T13:18:08.411Z,9.03
2019-02-19T13:20:36.198Z,8.70
2019-02-19T13:23:04.147Z,9.00
2019-02-19T13:25:32.044Z,8.40
2019-02-19T13:27:59.807Z,9.10
2019-02-19T13:30:27.794Z,9.10
2019-02-19T13:32:55.542Z,9.50
2019-02-19T13:35:25.783Z,9.37
2019-02-19T13:37:53.915Z,9.00
2019-02-19T13:40:21.864Z,9.97
2019-02-19T13:42:49.830Z,9.27
2019-02-19T13:45:17.713Z,9.23
2019-02-19T13:47:45.604Z,9.67
2019-02-19T13:50:16.071Z,10.10
2019-02-19T13:52:49.098Z,9.60
2019-02-19T13:55:20.736Z,11.07
2019-02-19T13:57:48.522Z,10.30
2019-02-19T14:00:21.491Z,10.50
2019-02-19T14:02:49.434Z,10.50
2019-02-19T14:05:17.261Z,10.90
2019-02-19T14:07:45.199Z,10.60
2019-02-19T14:10:13.144Z,10.63
2019-02-19T14:12:41.132Z,11.77
2019-02-19T14:15:28.831Z,10.77
2019-02-19T14:17:56.632Z,11.30
2019-02-19T14:20:30.048Z,10.53
2019-02-19T14:23:16.911Z,12.40
2019-02-19T14:26:10.080Z,10.00
2019-02-19T14:28:51.746Z,10.47
2019-02-19T14:31:37.815Z,10.73
2019-02-19T14:34:25.094Z,11.37
2019-02-19T14:37:12.953Z,10.73
2019-02-19T14:39:53.212Z,10.50
2019-02-19T14:42:41.533Z,11.40
2019-02-19T14:45:28.120Z,19.98
2019-02-19T14:48:24.205Z,19.27
2019-02-19T14:51:03.079Z,17.50
2019-02-19T14:54:02.938Z,15.80
2019-02-19T14:57:02.351Z,12.00
2019-02-19T14:59:55.139Z,13.08
2019-02-19T15:02:54.434Z,12.10
2019-02-19T15:05:38.366Z,12.83
2019-02-19T15:08:28.745Z,13.13
2019-02-19T15:11:09.607Z,12.90
2019-02-19T15:14:02.825Z,13.23
2019-02-19T15:16:45.460Z,12.67
2019-02-19T15:19:47.565Z,12.97
2019-02-19T15:22:25.747Z,12.30
2019-02-19T15:25:19.722Z,14.83
2019-02-19T15:28:05.608Z,18.10
2019-02-19T15:30:53.301Z,20.10
2019-02-19T15:33:40.591Z,21.70
2019-02-19T15:36:31.397Z,21.13
2019-02-19T15:39:17.494Z,21.77
2019-02-19T15:42:07.696Z,22.27
2019-02-19T15:44:57.935Z,22.13
2019-02-19T15:47:42.245Z,46.90
2019-02-19T15:50:28.576Z,30.93
2019-02-19T15:53:18.921Z,25.83
2019-02-19T15:56:04.770Z,32.07
2019-02-19T15:58:55.189Z,41.30
2019-02-19T16:01:48.347Z,29.23
2019-02-19T16:04:35.032Z,21.43
2019-02-19T16:07:29.021Z,26.80
2019-02-19T16:10:19.223Z,17.63
2019-02-19T16:13:18.659Z,18.20
2019-02-19T16:16:04.777Z,15.70
2019-02-19T16:18:51.507Z,16.07
2019-02-19T16:21:37.232Z,15.70
2019-02-19T16:24:21.606Z,16.00
2019-02-19T16:27:11.795Z,15.90
2019-02-19T16:30:01.588Z,15.27
2019-02-19T16:32:48.868Z,15.40
2019-02-19T16:35:34.886Z,17.87
2019-02-19T16:38:21.001Z,15.10
2019-02-19T16:40:55.700Z,16.13
2019-02-19T16:43:42.970Z,14.37
2019-02-19T16:46:19.177Z,14.60
2019-02-19T16:49:12.334Z,14.67
2019-02-19T16:52:02.547Z,13.53
2019-02-19T16:54:44.914Z,13.53
2019-02-19T16:57:35.103Z,11.93
2019-02-19T17:00:37.750Z,13.37
2019-02-19T17:03:24.534Z,13.50
2019-02-19T17:06:07.416Z,12.93
2019-02-19T17:08:54.709Z,13.47
2019-02-19T17:11:39.182Z,12.07
2019-02-19T17:14:32.979Z,12.27
2019-02-19T17:17:29.605Z,11.70
2019-02-19T17:20:21.097Z,11.87
2019-02-19T17:23:11.703Z,10.57
2019-02-19T17:25:57.508Z,11.40
2019-02-19T17:28:31.030Z,10.53
2019-02-19T17:31:27.618Z,10.93
2019-02-19T17:34:18.322Z,10.83
2019-02-19T17:37:11.228Z,12.50
2019-02-19T17:39:43.867Z,10.97
2019-02-19T17:42:34.392Z,13.57
2019-02-19T17:45:37.217Z,11.07
2019-02-19T17:48:23.121Z,10.03
2019-02-19T17:51:00.674Z,10.43
2019-02-19T17:53:47.955Z,10.10
2019-02-19T17:56:27.308Z,9.77
2019-02-19T17:59:03.947Z,11.03
2019-02-19T18:01:51.164Z,11.17
2019-02-19T18:04:30.597Z,9.63
2019-02-19T18:07:16.565Z,9.73
2019-02-19T18:10:21.975Z,7.63
2019-02-19T18:13:12.121Z,6.97
2019-02-19T18:16:00.314Z,6.37
2019-02-19T18:18:53.322Z,6.30
2019-02-19T18:21:21.324Z,5.97
2019-02-19T18:23:49.109Z,5.47
2019-02-19T18:26:16.918Z,5.47
2019-02-19T18:28:44.894Z,6.50
2019-02-19T18:31:12.689Z,7.60
2019-02-19T18:33:40.434Z,6.10
2019-02-19T18:36:08.445Z,5.43
2019-02-19T18:38:36.197Z,5.27
2019-02-19T18:41:04.774Z,4.73
2019-02-19T18:43:32.616Z,4.60
2019-02-19T18:46:00.479Z,4.70
2019-02-19T18:48:28.348Z,4.70
2019-02-19T18:50:58.609Z,4.87
2019-02-19T18:53:26.840Z,4.40
2019-02-19T18:55:54.781Z,4.00
2019-02-19T18:58:22.521Z,4.53
2019-02-19T19:00:50.345Z,4.10
2019-02-19T19:03:18.057Z,4.33
2019-02-19T19:05:45.876Z,4.07
2019-02-19T19:08:13.652Z,4.80
2019-02-19T19:10:41.578Z,5.00
2019-02-19T19:13:09.347Z,4.53
2019-02-19T19:15:37.278Z,4.50
2019-02-19T19:18:05.167Z,4.07
2019-02-19T19:20:32.922Z,4.87
2019-02-19T19:23:00.723Z,4.90
2019-02-19T19:25:28.572Z,4.87
2019-02-19T19:27:56.389Z,5.47
2019-02-19T19:30:24.239Z,5.43
2019-02-19T19:32:52.134Z,5.67
2019-02-19T19:35:19.915Z,5.77
2019-02-19T19:37:47.726Z,5.90
2019-02-19T19:40:15.576Z,5.00
2019-02-19T19:42:43.489Z,5.77
2019-02-19T19:45:11.430Z,7.03
2019-02-19T19:47:39.338Z,6.40
2019-02-19T19:50:07.594Z,7.20
2019-02-19T19:52:35.386Z,7.23
2019-02-19T19:55:03.461Z,7.07
2019-02-19T19:57:31.392Z,8.40
2019-02-19T19:59:59.265Z,7.30
2019-02-19T20:02:27.174Z,8.90
2019-02-19T20:04:55.029Z,7.80
2019-02-19T20:07:23.005Z,8.07
2019-02-19T20:09:50.830Z,8.37
2019-02-19T20:12:18.754Z,8.07
2019-02-19T20:14:46.593Z,7.87
2019-02-19T20:17:14.408Z,8.70
2019-02-19T20:19:42.235Z,8.77
2019-02-19T20:22:10.123Z,8.80
2019-02-19T20:24:38.004Z,9.73
2019-02-19T20:27:06.499Z,9.73
2019-02-19T20:29:34.392Z,8.73
2019-02-19T20:32:02.150Z,9.37
2019-02-19T20:34:29.994Z,9.53
2019-02-19T20:36:57.780Z,9.70
2019-02-19T20:39:25.603Z,9.40
2019-02-19T20:41:53.382Z,10.37
2019-02-19T20:44:21.161Z,10.47
2019-02-19T20:46:49.063Z,9.80
2019-02-19T20:49:16.883Z,10.07
2019-02-19T20:51:44.624Z,9.17
2019-02-19T20:54:12.472Z,9.97
2019-02-19T20:56:40.237Z,10.13
2019-02-19T20:59:08.081Z,10.70
2019-02-19T21:01:35.967Z,10.20
2019-02-19T21:04:03.893Z,10.40
2019-02-19T21:06:31.770Z,11.10
2019-02-19T21:08:59.606Z,11.10
2019-02-19T21:11:27.745Z,10.60
2019-02-19T21:13:55.715Z,11.13
2019-02-19T21:16:23.520Z,11.03
2019-02-19T21:18:52.412Z,11.43
2019-02-19T21:21:20.265Z,11.27
2019-02-19T21:23:48.170Z,11.37
2019-02-19T21:26:15.923Z,11.67
2019-02-19T21:28:43.834Z,11.40
2019-02-19T21:31:11.585Z,11.73
2019-02-19T21:33:39.411Z,12.13
2019-02-19T21:36:07.149Z,12.57
2019-02-19T21:38:34.988Z,14.13
2019-02-19T21:41:02.833Z,12.73
2019-02-19T21:43:30.802Z,13.40
2019-02-19T21:45:58.680Z,11.63
2019-02-19T21:48:26.451Z,12.23
2019-02-19T21:50:54.368Z,40.77
2019-02-19T21:53:22.257Z,251.73
2019-02-19T21:55:50.214Z,17.57
2019-02-19T21:58:18.123Z,14.00
2019-02-19T22:00:46.360Z,12.47
2019-02-19T22:03:14.567Z,13.47
2019-02-19T22:05:42.387Z,13.10
2019-02-19T22:08:10.125Z,13.97
2019-02-19T22:10:39.142Z,14.03
2019-02-19T22:13:07.017Z,13.27
2019-02-19T22:15:34.838Z,13.97
2019-02-19T22:18:02.709Z,13.87
2019-02-19T22:20:48.651Z,13.37
2019-02-19T22:23:16.422Z,14.60
2019-02-19T22:25:44.215Z,13.73
2019-02-19T22:28:12.425Z,13.97
2019-02-19T22:30:40.437Z,13.33
2019-02-19T22:33:08.341Z,15.13
2019-02-19T22:35:36.408Z,14.40
2019-02-19T22:38:04.375Z,49.07
2019-02-19T22:40:32.491Z,37.03
2019-02-19T22:43:00.400Z,16.93
2019-02-19T22:45:28.884Z,15.10
2019-02-19T22:47:56.861Z,15.40
2019-02-19T22:50:24.818Z,15.17
2019-02-19T22:52:53.028Z,14.27
2019-02-19T22:55:34.601Z,16.33
2019-02-19T22:58:02.924Z,14.97
2019-02-19T23:00:51.627Z,16.33
2019-02-19T23:03:24.694Z,16.20
2019-02-19T23:05:52.901Z,16.30
2019-02-19T23:08:20.731Z,16.75
2019-02-19T23:10:48.589Z,15.63
2019-02-19T23:13:16.529Z,15.53
2019-02-19T23:15:44.737Z,15.40
2019-02-19T23:18:12.673Z,15.30
2019-02-19T23:20:40.525Z,16.17
2019-02-19T23:23:09.133Z,16.37
2019-02-19T23:25:37.051Z,15.40
2019-02-19T23:28:05.085Z,15.08
2019-02-19T23:30:33.757Z,14.70
2019-02-19T23:33:01.832Z,14.60
2019-02-19T23:35:37.382Z,13.57
2019-02-19T23:38:05.300Z,15.40
2019-02-19T23:40:33.582Z,15.00
2019-02-19T23:43:01.520Z,16.33
2019-02-19T23:45:29.311Z,142.15
2019-02-19T23:47:58.077Z,228.33
2019-02-19T23:50:25.894Z,30.77
2019-02-19T23:52:53.918Z,16.42
2019-02-19T23:55:21.679Z,16.23
2019-02-19T23:57:49.548Z,16.73
